sensor_id;sensor_type;location;lat;lon;timestamp;pressure;altitude;pressure_sealevel;temperature;humidity
44079;BME280;29744;49.078;12.878;2022-12-29T00:03:00;96221.25;;;15.17;35.55
44079;BME280;29744;49.078;12.878;2022-12-29T00:08:00;96207.63;;;15.13;35.94
44079;BME280;29744;49.078;12.878;2022-12-29T00:13:01;96194.78;;;15.10;35.86
44079;BME280;29744;49.078;12.878;2022-12-29T00:18:39;96194.66;;;15.06;35.71
44079;BME280;29744;49.078;12.878;2022-12-29T00:23:39;96192.63;;;15.03;35.80
44079;BME280;29744;49.078;12.878;2022-12-29T00:28:58;96182.47;;;15.00;35.64
44079;BME280;29744;49.078;12.878;2022-12-29T00:34:17;96180.75;;;14.96;36.12
44079;BME280;29744;49.078;12.878;2022-12-29T00:39:36;96186.81;;;14.93;36.10
44079;BME280;29744;49.078;12.878;2022-12-29T00:44:55;96186.69;;;14.89;36.04
44079;BME280;29744;49.078;12.878;2022-12-29T00:49:55;96187.03;;;14.88;36.00
44079;BME280;29744;49.078;12.878;2022-12-29T00:54:55;96184.66;;;14.86;35.63
44079;BME280;29744;49.078;12.878;2022-12-29T00:59:56;96176.44;;;14.82;36.11
44079;BME280;29744;49.078;12.878;2022-12-29T01:04:56;96174.06;;;14.81;36.22
44079;BME280;29744;49.078;12.878;2022-12-29T01:09:56;96172.81;;;14.78;35.98
44079;BME280;29744;49.078;12.878;2022-12-29T01:15:14;96176.97;;;14.76;36.08
44079;BME280;29744;49.078;12.878;2022-12-29T01:20:15;96182.69;;;14.74;35.85
44079;BME280;29744;49.078;12.878;2022-12-29T01:25:15;96180.34;;;14.73;36.16
44079;BME280;29744;49.078;12.878;2022-12-29T01:30:15;96177.50;;;14.69;35.76
44079;BME280;29744;49.078;12.878;2022-12-29T01:35:15;96175.91;;;14.68;36.16
44079;BME280;29744;49.078;12.878;2022-12-29T01:40:16;96176.25;;;14.67;36.12
44079;BME280;29744;49.078;12.878;2022-12-29T01:45:17;96175.78;;;14.65;36.07
44079;BME280;29744;49.078;12.878;2022-12-29T01:55:23;96159.81;;;14.60;36.45
44079;BME280;29744;49.078;12.878;2022-12-29T02:00:24;96160.13;;;14.58;36.37
44079;BME280;29744;49.078;12.878;2022-12-29T02:05:32;96152.38;;;14.57;36.29
44079;BME280;29744;49.078;12.878;2022-12-29T02:10:34;96148.41;;;14.54;36.22
44079;BME280;29744;49.078;12.878;2022-12-29T02:15:51;96144.81;;;14.50;36.08
44079;BME280;29744;49.078;12.878;2022-12-29T02:31:38;96138.81;;;14.44;36.25
44079;BME280;29744;49.078;12.878;2022-12-29T02:36:46;96136.44;;;14.43;36.26
44079;BME280;29744;49.078;12.878;2022-12-29T02:47:16;96132.03;;;14.38;36.50
44079;BME280;29744;49.078;12.878;2022-12-29T02:52:26;96111.56;;;14.37;36.58
44079;BME280;29744;49.078;12.878;2022-12-29T02:57:31;96124.28;;;14.37;36.74
44079;BME280;29744;49.078;12.878;2022-12-29T03:03:10;96116.06;;;14.33;36.72
44079;BME280;29744;49.078;12.878;2022-12-29T03:08:38;96109.88;;;14.33;36.39
44079;BME280;29744;49.078;12.878;2022-12-29T03:13:47;96109.41;;;14.31;36.62
44079;BME280;29744;49.078;12.878;2022-12-29T03:19:16;96105.78;;;14.27;36.29
44079;BME280;29744;49.078;12.878;2022-12-29T03:24:22;96111.97;;;14.27;36.18
44079;BME280;29744;49.078;12.878;2022-12-29T03:29:24;96117.69;;;14.26;36.23
44079;BME280;29744;49.078;12.878;2022-12-29T03:34:27;96112.31;;;14.26;36.45
44079;BME280;29744;49.078;12.878;2022-12-29T03:39:28;96103.75;;;14.24;36.43
44079;BME280;29744;49.078;12.878;2022-12-29T03:44:37;96112.97;;;14.23;36.46
44079;BME280;29744;49.078;12.878;2022-12-29T03:49:39;96118.66;;;14.21;36.17
44079;BME280;29744;49.078;12.878;2022-12-29T03:54:39;96109.78;;;14.21;36.40
44079;BME280;29744;49.078;12.878;2022-12-29T03:59:40;96092.34;;;14.18;36.28
44079;BME280;29744;49.078;12.878;2022-12-29T04:04:40;96088.84;;;14.17;36.36
44079;BME280;29744;49.078;12.878;2022-12-29T04:09:40;96084.59;;;14.16;36.63
44079;BME280;29744;49.078;12.878;2022-12-29T04:14:40;96082.22;;;14.15;36.83
44079;BME280;29744;49.078;12.878;2022-12-29T04:19:43;96080.31;;;14.15;36.84
44079;BME280;29744;49.078;12.878;2022-12-29T04:24:44;96080.97;;;14.12;36.88
44079;BME280;29744;49.078;12.878;2022-12-29T04:29:44;96076.38;;;14.13;36.41
44079;BME280;29744;49.078;12.878;2022-12-29T04:34:44;96078.28;;;14.12;36.67
44079;BME280;29744;49.078;12.878;2022-12-29T04:39:44;96092.88;;;14.11;36.73
44079;BME280;29744;49.078;12.878;2022-12-29T04:44:45;96085.56;;;14.12;36.49
44079;BME280;29744;49.078;12.878;2022-12-29T04:49:45;96085.25;;;14.13;36.82
44079;BME280;29744;49.078;12.878;2022-12-29T04:54:45;96075.38;;;14.17;36.35
44079;BME280;29744;49.078;12.878;2022-12-29T04:59:45;96089.16;;;14.25;36.26
44079;BME280;29744;49.078;12.878;2022-12-29T05:04:46;96090.66;;;14.34;36.79
44079;BME280;29744;49.078;12.878;2022-12-29T05:09:46;96089.47;;;14.44;36.35
44079;BME280;29744;49.078;12.878;2022-12-29T05:14:46;96082.53;;;14.55;36.76
44079;BME280;29744;49.078;12.878;2022-12-29T05:19:46;96090.34;;;14.69;36.36
44079;BME280;29744;49.078;12.878;2022-12-29T05:24:47;96093.88;;;14.81;36.10
44079;BME280;29744;49.078;12.878;2022-12-29T05:29:47;96096.72;;;14.97;36.64
44079;BME280;29744;49.078;12.878;2022-12-29T05:34:47;96098.00;;;15.12;35.91
44079;BME280;29744;49.078;12.878;2022-12-29T05:39:48;96090.38;;;15.26;36.52
44079;BME280;29744;49.078;12.878;2022-12-29T05:44:48;96104.00;;;15.42;36.04
44079;BME280;29744;49.078;12.878;2022-12-29T05:49:52;96096.38;;;15.56;35.89
44079;BME280;29744;49.078;12.878;2022-12-29T05:54:52;96096.47;;;15.72;35.77
44079;BME280;29744;49.078;12.878;2022-12-29T05:59:52;96093.44;;;15.86;35.81
44079;BME280;29744;49.078;12.878;2022-12-29T06:04:52;96091.50;;;15.98;35.80
44079;BME280;29744;49.078;12.878;2022-12-29T06:09:53;96083.38;;;16.10;35.58
44079;BME280;29744;49.078;12.878;2022-12-29T06:14:53;96092.13;;;16.20;35.68
44079;BME280;29744;49.078;12.878;2022-12-29T06:19:53;96080.81;;;16.30;35.70
44079;BME280;29744;49.078;12.878;2022-12-29T06:24:53;96077.53;;;16.36;35.21
44079;BME280;29744;49.078;12.878;2022-12-29T06:29:54;96073.84;;;16.41;35.11
44079;BME280;29744;49.078;12.878;2022-12-29T06:34:54;96080.13;;;16.45;34.96
44079;BME280;29744;49.078;12.878;2022-12-29T06:39:55;96087.56;;;16.48;35.04
44079;BME280;29744;49.078;12.878;2022-12-29T06:44:55;96084.84;;;16.48;35.30
44079;BME280;29744;49.078;12.878;2022-12-29T06:49:58;96094.56;;;16.49;35.39
44079;BME280;29744;49.078;12.878;2022-12-29T06:54:59;96090.72;;;16.50;34.71
44079;BME280;29744;49.078;12.878;2022-12-29T06:59:59;96092.97;;;16.48;35.11
44079;BME280;29744;49.078;12.878;2022-12-29T07:04:59;96092.53;;;16.46;35.23
44079;BME280;29744;49.078;12.878;2022-12-29T07:10:00;96095.59;;;16.45;34.99
44079;BME280;29744;49.078;12.878;2022-12-29T07:15:00;96095.13;;;16.42;34.87
44079;BME280;29744;49.078;12.878;2022-12-29T07:20:00;96089.28;;;16.40;34.90
44079;BME280;29744;49.078;12.878;2022-12-29T07:25:00;96103.47;;;16.37;34.95
44079;BME280;29744;49.078;12.878;2022-12-29T07:30:01;96117.69;;;16.34;34.74
44079;BME280;29744;49.078;12.878;2022-12-29T07:35:01;96112.97;;;16.31;35.03
44079;BME280;29744;49.078;12.878;2022-12-29T07:40:03;96111.72;;;16.29;34.73
44079;BME280;29744;49.078;12.878;2022-12-29T07:45:04;96107.34;;;16.24;35.21
44079;BME280;29744;49.078;12.878;2022-12-29T07:50:04;96110.72;;;16.21;35.19
44079;BME280;29744;49.078;12.878;2022-12-29T07:55:05;96105.22;;;16.18;34.76
44079;BME280;29744;49.078;12.878;2022-12-29T08:00:06;96107.47;;;16.16;35.09
44079;BME280;29744;49.078;12.878;2022-12-29T08:05:07;96112.78;;;16.12;35.42
44079;BME280;29744;49.078;12.878;2022-12-29T08:10:07;96117.28;;;16.08;35.27
44079;BME280;29744;49.078;12.878;2022-12-29T08:15:09;96125.31;;;16.04;35.07
44079;BME280;29744;49.078;12.878;2022-12-29T08:20:10;96118.66;;;16.02;34.92
44079;BME280;29744;49.078;12.878;2022-12-29T08:25:10;96114.28;;;15.97;34.90
44079;BME280;29744;49.078;12.878;2022-12-29T08:30:11;96102.22;;;15.95;34.86
44079;BME280;29744;49.078;12.878;2022-12-29T08:35:11;96094.00;;;15.91;35.38
44079;BME280;29744;49.078;12.878;2022-12-29T08:40:12;96080.72;;;15.86;35.20
44079;BME280;29744;49.078;12.878;2022-12-29T08:45:14;96104.59;;;15.84;35.24
44079;BME280;29744;49.078;12.878;2022-12-29T08:50:14;96126.91;;;15.81;35.05
44079;BME280;29744;49.078;12.878;2022-12-29T08:55:14;96123.72;;;15.79;35.42
44079;BME280;29744;49.078;12.878;2022-12-29T09:00:15;96126.31;;;15.75;35.45
44079;BME280;29744;49.078;12.878;2022-12-29T09:05:15;96119.66;;;15.73;35.35
44079;BME280;29744;49.078;12.878;2022-12-29T09:10:16;96133.88;;;15.70;35.22
44079;BME280;29744;49.078;12.878;2022-12-29T09:15:16;96138.38;;;15.66;35.70
44079;BME280;29744;49.078;12.878;2022-12-29T09:20:18;96133.31;;;15.64;35.35
44079;BME280;29744;49.078;12.878;2022-12-29T09:25:19;96144.78;;;15.61;35.49
44079;BME280;29744;49.078;12.878;2022-12-29T09:30:21;96128.47;;;15.58;35.37
44079;BME280;29744;49.078;12.878;2022-12-29T09:35:21;96125.63;;;15.54;35.24
44079;BME280;29744;49.078;12.878;2022-12-29T09:40:31;96119.00;;;15.52;35.59
44079;BME280;29744;49.078;12.878;2022-12-29T09:45:38;96114.25;;;15.49;35.72
44079;BME280;29744;49.078;12.878;2022-12-29T09:50:44;96118.09;;;15.48;35.75
44079;BME280;29744;49.078;12.878;2022-12-29T09:55:55;96113.34;;;15.44;35.71
44079;BME280;29744;49.078;12.878;2022-12-29T10:01:07;96111.34;;;15.41;35.83
44079;BME280;29744;49.078;12.878;2022-12-29T10:16:53;96097.59;;;15.34;35.44
44079;BME280;29744;49.078;12.878;2022-12-29T10:22:20;96093.66;;;15.32;35.72
44079;BME280;29744;49.078;12.878;2022-12-29T10:27:25;96095.91;;;15.30;35.62
44079;BME280;29744;49.078;12.878;2022-12-29T10:32:33;96084.66;;;15.28;35.53
44079;BME280;29744;49.078;12.878;2022-12-29T10:42:58;96069.78;;;15.22;35.99
44079;BME280;29744;49.078;12.878;2022-12-29T10:48:06;96068.53;;;15.19;36.24
44079;BME280;29744;49.078;12.878;2022-12-29T10:53:15;96059.97;;;15.17;35.79
44079;BME280;29744;49.078;12.878;2022-12-29T10:58:19;96051.09;;;15.17;35.94
44079;BME280;29744;49.078;12.878;2022-12-29T11:08:38;96038.59;;;15.12;34.98
44079;BME280;29744;49.078;12.878;2022-12-29T11:13:50;96035.44;;;15.10;35.28
44079;BME280;29744;49.078;12.878;2022-12-29T11:18:51;96030.03;;;15.10;35.08
44079;BME280;29744;49.078;12.878;2022-12-29T11:24:02;96018.13;;;15.11;34.69
44079;BME280;29744;49.078;12.878;2022-12-29T11:29:16;96024.31;;;15.11;34.87
44079;BME280;29744;49.078;12.878;2022-12-29T11:34:20;96030.16;;;15.13;35.08
44079;BME280;29744;49.078;12.878;2022-12-29T11:39:33;96036.34;;;15.14;35.42
44079;BME280;29744;49.078;12.878;2022-12-29T11:44:37;96022.50;;;15.16;35.32
44079;BME280;29744;49.078;12.878;2022-12-29T11:49:49;96027.13;;;15.15;35.07
44079;BME280;29744;49.078;12.878;2022-12-29T11:54:50;96032.53;;;15.15;35.40
44079;BME280;29744;49.078;12.878;2022-12-29T11:59:53;96022.84;;;15.14;35.64
44079;BME280;29744;49.078;12.878;2022-12-29T12:15:22;96014.97;;;15.09;35.66
44079;BME280;29744;49.078;12.878;2022-12-29T12:20:32;96016.09;;;15.08;35.46
44079;BME280;29744;49.078;12.878;2022-12-29T12:25:43;96002.13;;;15.06;35.70
44079;BME280;29744;49.078;12.878;2022-12-29T12:30:49;95998.97;;;15.04;35.36
44079;BME280;29744;49.078;12.878;2022-12-29T12:41:28;96002.31;;;15.01;35.89
44079;BME280;29744;49.078;12.878;2022-12-29T12:52:33;95987.03;;;14.93;35.67
44079;BME280;29744;49.078;12.878;2022-12-29T12:58:05;96000.06;;;14.91;35.95
44079;BME280;29744;49.078;12.878;2022-12-29T13:03:13;95984.22;;;14.89;35.75
44079;BME280;29744;49.078;12.878;2022-12-29T13:09:00;95999.16;;;14.87;36.16
44079;BME280;29744;49.078;12.878;2022-12-29T13:19:31;95998.25;;;14.82;36.09
44079;BME280;29744;49.078;12.878;2022-12-29T13:30:15;96008.16;;;14.78;35.83
44079;BME280;29744;49.078;12.878;2022-12-29T13:40:56;95999.16;;;14.74;36.18
44079;BME280;29744;49.078;12.878;2022-12-29T13:46:06;96004.88;;;14.73;35.83
44079;BME280;29744;49.078;12.878;2022-12-29T13:51:09;96004.09;;;14.72;35.97
44079;BME280;29744;49.078;12.878;2022-12-29T13:56:20;96010.63;;;14.71;36.10
44079;BME280;29744;49.078;12.878;2022-12-29T14:01:40;96008.25;;;14.70;36.23
44079;BME280;29744;49.078;12.878;2022-12-29T14:06:43;96012.41;;;14.67;36.22
44079;BME280;29744;49.078;12.878;2022-12-29T14:11:44;96030.50;;;14.67;36.24
44079;BME280;29744;49.078;12.878;2022-12-29T14:16:45;96028.94;;;14.66;36.03
44079;BME280;29744;49.078;12.878;2022-12-29T14:21:55;96019.59;;;14.63;35.93
44079;BME280;29744;49.078;12.878;2022-12-29T14:31:56;95993.28;;;14.60;36.11
44079;BME280;29744;49.078;12.878;2022-12-29T14:36:57;95996.31;;;14.59;35.92
44079;BME280;29744;49.078;12.878;2022-12-29T14:42:00;96000.91;;;14.58;35.94
44079;BME280;29744;49.078;12.878;2022-12-29T14:47:06;96004.28;;;14.55;36.44
44079;BME280;29744;49.078;12.878;2022-12-29T14:52:27;96009.56;;;14.52;36.58
44079;BME280;29744;49.078;12.878;2022-12-29T14:57:33;96014.16;;;14.51;36.44
44079;BME280;29744;49.078;12.878;2022-12-29T15:02:40;96022.59;;;14.49;36.50
44079;BME280;29744;49.078;12.878;2022-12-29T15:07:42;96033.72;;;14.48;36.04
44079;BME280;29744;49.078;12.878;2022-12-29T15:12:51;96033.25;;;14.46;36.49
44079;BME280;29744;49.078;12.878;2022-12-29T15:17:55;96034.38;;;14.45;36.46
44079;BME280;29744;49.078;12.878;2022-12-29T15:23:16;96037.75;;;14.42;36.63
44079;BME280;29744;49.078;12.878;2022-12-29T15:28:17;96032.34;;;14.42;36.64
44079;BME280;29744;49.078;12.878;2022-12-29T15:33:26;96047.28;;;14.39;36.09
44079;BME280;29744;49.078;12.878;2022-12-29T15:38:28;96041.09;;;14.39;36.21
44079;BME280;29744;49.078;12.878;2022-12-29T15:48:32;96036.03;;;14.37;36.53
44079;BME280;29744;49.078;12.878;2022-12-29T15:53:33;96044.47;;;14.36;36.17
44079;BME280;29744;49.078;12.878;2022-12-29T15:58:40;96046.38;;;14.35;36.34
44079;BME280;29744;49.078;12.878;2022-12-29T16:03:44;96034.00;;;14.34;36.55
44079;BME280;29744;49.078;12.878;2022-12-29T16:09:41;96034.34;;;14.33;36.47
44079;BME280;29744;49.078;12.878;2022-12-29T16:14:21;96033.22;;;14.34;36.33
44079;BME280;29744;49.078;12.878;2022-12-29T16:19:29;96040.97;;;14.35;36.33
44079;BME280;29744;49.078;12.878;2022-12-29T16:24:31;96036.16;;;14.41;36.24
44079;BME280;29744;49.078;12.878;2022-12-29T16:29:32;96037.88;;;14.45;36.47
44079;BME280;29744;49.078;12.878;2022-12-29T16:34:42;96040.81;;;14.53;36.08
44079;BME280;29744;49.078;12.878;2022-12-29T16:39:44;96051.53;;;14.61;36.33
44079;BME280;29744;49.078;12.878;2022-12-29T16:44:44;96049.97;;;14.72;36.61
44079;BME280;29744;49.078;12.878;2022-12-29T16:49:50;96049.22;;;14.84;36.39
44079;BME280;29744;49.078;12.878;2022-12-29T16:54:56;96060.81;;;14.97;36.46
44079;BME280;29744;49.078;12.878;2022-12-29T17:00:07;96057.06;;;15.10;36.23
44079;BME280;29744;49.078;12.878;2022-12-29T17:05:12;96050.53;;;15.23;36.27
44079;BME280;29744;49.078;12.878;2022-12-29T17:10:13;96062.59;;;15.38;36.18
44079;BME280;29744;49.078;12.878;2022-12-29T17:15:20;96063.81;;;15.53;35.84
44079;BME280;29744;49.078;12.878;2022-12-29T17:20:26;96065.84;;;15.68;36.03
44079;BME280;29744;49.078;12.878;2022-12-29T17:25:35;96060.88;;;15.82;35.97
44079;BME280;29744;49.078;12.878;2022-12-29T17:30:36;96054.31;;;15.95;36.12
44079;BME280;29744;49.078;12.878;2022-12-29T17:35:36;96046.53;;;16.06;35.63
44079;BME280;29744;49.078;12.878;2022-12-29T17:40:37;96054.94;;;16.17;35.27
44079;BME280;29744;49.078;12.878;2022-12-29T17:45:38;96053.66;;;16.26;35.56
44079;BME280;29744;49.078;12.878;2022-12-29T17:50:39;96066.28;;;16.34;35.40
44079;BME280;29744;49.078;12.878;2022-12-29T17:55:40;96064.94;;;16.40;35.04
44079;BME280;29744;49.078;12.878;2022-12-29T18:00:41;96056.91;;;16.44;35.36
44079;BME280;29744;49.078;12.878;2022-12-29T18:05:41;96066.25;;;16.47;35.58
44079;BME280;29744;49.078;12.878;2022-12-29T18:10:42;96055.53;;;16.50;35.16
44079;BME280;29744;49.078;12.878;2022-12-29T18:15:43;96069.06;;;16.50;35.04
44079;BME280;29744;49.078;12.878;2022-12-29T18:20:44;96059.03;;;16.51;34.96
44079;BME280;29744;49.078;12.878;2022-12-29T18:25:48;96066.00;;;16.52;35.39
44079;BME280;29744;49.078;12.878;2022-12-29T18:30:49;96063.66;;;16.50;35.16
44079;BME280;29744;49.078;12.878;2022-12-29T18:36:02;96061.63;;;16.47;35.33
44079;BME280;29744;49.078;12.878;2022-12-29T18:41:03;96060.84;;;16.47;35.45
44079;BME280;29744;49.078;12.878;2022-12-29T18:46:03;96054.19;;;16.44;35.37
44079;BME280;29744;49.078;12.878;2022-12-29T18:51:04;96039.44;;;16.41;34.93
44079;BME280;29744;49.078;12.878;2022-12-29T18:56:05;96051.72;;;16.39;35.28
44079;BME280;29744;49.078;12.878;2022-12-29T19:01:19;96047.78;;;16.36;34.80
44079;BME280;29744;49.078;12.878;2022-12-29T19:06:20;96042.69;;;16.35;34.90
44079;BME280;29744;49.078;12.878;2022-12-29T19:11:20;96050.03;;;16.34;35.22
44079;BME280;29744;49.078;12.878;2022-12-29T19:16:21;96045.75;;;16.33;35.44
44079;BME280;29744;49.078;12.878;2022-12-29T19:21:23;96047.31;;;16.34;35.21
44079;BME280;29744;49.078;12.878;2022-12-29T19:26:31;96046.19;;;16.35;35.21
44079;BME280;29744;49.078;12.878;2022-12-29T19:31:33;96038.06;;;16.35;35.08
44079;BME280;29744;49.078;12.878;2022-12-29T19:36:34;96048.56;;;16.37;35.22
44079;BME280;29744;49.078;12.878;2022-12-29T19:41:34;96054.75;;;16.37;34.86
44079;BME280;29744;49.078;12.878;2022-12-29T19:46:34;96062.09;;;16.37;34.81
44079;BME280;29744;49.078;12.878;2022-12-29T19:51:35;96062.88;;;16.37;35.32
44079;BME280;29744;49.078;12.878;2022-12-29T19:56:35;96068.63;;;16.36;34.94
44079;BME280;29744;49.078;12.878;2022-12-29T20:01:35;96075.97;;;16.35;35.32
44079;BME280;29744;49.078;12.878;2022-12-29T20:06:35;96076.31;;;16.34;35.43
44079;BME280;29744;49.078;12.878;2022-12-29T20:11:36;96076.66;;;16.32;35.37
44079;BME280;29744;49.078;12.878;2022-12-29T20:16:36;96079.25;;;16.29;34.92
44079;BME280;29744;49.078;12.878;2022-12-29T20:21:36;96068.78;;;16.27;35.43
44079;BME280;29744;49.078;12.878;2022-12-29T20:26:37;96083.00;;;16.24;35.05
44079;BME280;29744;49.078;12.878;2022-12-29T20:31:38;96077.13;;;16.22;35.33
44079;BME280;29744;49.078;12.878;2022-12-29T20:36:42;96069.69;;;16.19;35.22
44079;BME280;29744;49.078;12.878;2022-12-29T20:41:43;96061.47;;;16.16;35.01
44079;BME280;29744;49.078;12.878;2022-12-29T20:46:44;96057.53;;;16.13;35.13
44079;BME280;29744;49.078;12.878;2022-12-29T20:51:44;96075.25;;;16.10;35.50
44079;BME280;29744;49.078;12.878;2022-12-29T20:56:44;96072.44;;;16.07;35.19
44079;BME280;29744;49.078;12.878;2022-12-29T21:01:45;96062.31;;;16.04;35.35
44079;BME280;29744;49.078;12.878;2022-12-29T21:06:45;96062.66;;;16.02;35.46
44079;BME280;29744;49.078;12.878;2022-12-29T21:11:47;96068.41;;;16.01;35.09
44079;BME280;29744;49.078;12.878;2022-12-29T21:16:47;96069.88;;;15.98;35.13
44079;BME280;29744;49.078;12.878;2022-12-29T21:21:47;96072.56;;;15.98;35.43
44079;BME280;29744;49.078;12.878;2022-12-29T21:26:48;96060.53;;;15.96;35.51
44079;BME280;29744;49.078;12.878;2022-12-29T21:31:48;96063.91;;;15.93;35.29
44079;BME280;29744;49.078;12.878;2022-12-29T21:36:49;96062.69;;;15.90;35.16
44079;BME280;29744;49.078;12.878;2022-12-29T21:41:49;96056.81;;;15.88;35.56
44079;BME280;29744;49.078;12.878;2022-12-29T21:46:51;96064.47;;;15.86;35.47
44079;BME280;29744;49.078;12.878;2022-12-29T21:51:51;96069.44;;;15.84;35.33
44079;BME280;29744;49.078;12.878;2022-12-29T21:56:53;96074.41;;;15.82;35.53
44079;BME280;29744;49.078;12.878;2022-12-29T22:01:53;96070.00;;;15.77;35.81
44079;BME280;29744;49.078;12.878;2022-12-29T22:07:12;96073.03;;;15.76;35.52
44079;BME280;29744;49.078;12.878;2022-12-29T22:12:31;96074.38;;;15.70;35.88
44079;BME280;29744;49.078;12.878;2022-12-29T22:17:52;96081.25;;;15.67;35.89
44079;BME280;29744;49.078;12.878;2022-12-29T22:22:53;96078.91;;;15.66;35.90
44079;BME280;29744;49.078;12.878;2022-12-29T22:27:53;96084.97;;;15.63;35.99
44079;BME280;29744;49.078;12.878;2022-12-29T22:32:56;96089.94;;;15.61;35.87
44079;BME280;29744;49.078;12.878;2022-12-29T22:37:56;96095.22;;;15.57;35.43
44079;BME280;29744;49.078;12.878;2022-12-29T22:42:56;96087.81;;;15.54;36.00
44079;BME280;29744;49.078;12.878;2022-12-29T22:47:57;96085.44;;;15.53;35.76
44079;BME280;29744;49.078;12.878;2022-12-29T22:52:57;96093.88;;;15.51;36.07
44079;BME280;29744;49.078;12.878;2022-12-29T22:57:57;96101.88;;;15.48;35.86
44079;BME280;29744;49.078;12.878;2022-12-29T23:02:57;96097.59;;;15.46;35.54
44079;BME280;29744;49.078;12.878;2022-12-29T23:07:59;96091.75;;;15.44;35.97
44079;BME280;29744;49.078;12.878;2022-12-29T23:12:59;96094.34;;;15.41;36.10
44079;BME280;29744;49.078;12.878;2022-12-29T23:17:59;96106.59;;;15.38;35.97
44079;BME280;29744;49.078;12.878;2022-12-29T23:23:00;96118.53;;;15.37;35.79
44079;BME280;29744;49.078;12.878;2022-12-29T23:28:00;96122.69;;;15.35;35.74
44079;BME280;29744;49.078;12.878;2022-12-29T23:33:00;96140.38;;;15.32;36.13
44079;BME280;29744;49.078;12.878;2022-12-29T23:38:01;96147.22;;;15.30;36.01
44079;BME280;29744;49.078;12.878;2022-12-29T23:43:01;96142.16;;;15.28;35.68
44079;BME280;29744;49.078;12.878;2022-12-29T23:48:01;96150.16;;;15.25;36.15
44079;BME280;29744;49.078;12.878;2022-12-29T23:53:02;96168.59;;;15.23;36.26
44079;BME280;29744;49.078;12.878;2022-12-29T23:58:02;96160.84;;;15.21;36.01
